Time;durP1;ratioP1;P1;durP2;ratioP2;P2;SDS_P1;SDS_P2;PMS_P1;PMS_P2;Temp;Humidity;BMP_temperature;BMP_pressure;BME280_temperature;BME280_humidity;BME280_pressure;Samples;Min_cycle;Max_cycle;Signal;HPM_P1;HPM_P2
2023/10/01 05:01:05;;;;;;;28.63;12.40;;;;;;;;;;5655409;23;20504;-69
2023/10/01 05:03:38;;;;;;;23.20;10.83;;;;;;;;;;4955398;28;20413;-73
2023/10/01 05:06:05;;;;;;;30.97;12.83;;;;;;;;;;4954921;28;20428;-68
2023/10/01 05:08:38;;;;;;;32.97;12.47;;;;;;;;;;4955155;28;20408;-69
2023/10/01 05:11:04;;;;;;;24.47;11.67;;;;;;;;;;4955043;28;20854;-71
2023/10/01 05:13:31;;;;;;;27.47;11.13;;;;;;;;;;4954945;29;20514;-69
2023/10/01 05:15:57;;;;;;;26.87;12.57;;;;;;;;;;4977719;23;20512;-68
2023/10/01 05:18:26;;;;;;;21.80;10.90;;;;;;;;;;4955430;29;20434;-68
2023/10/01 05:20:58;;;;;;;27.97;11.33;;;;;;;;;;4951820;28;20781;-70
2023/10/01 05:23:24;;;;;;;29.43;13.13;;;;;;;;;;4936362;29;20502;-68
2023/10/01 05:25:50;;;;;;;23.50;11.37;;;;;;;;;;4918942;29;20450;-68
2023/10/01 05:28:33;;;;;;;28.73;12.10;;;;;;;;;;4915968;29;20891;-70
2023/10/01 05:31:00;;;;;;;25.90;11.03;;;;;;;;;;4917608;29;20410;-68
2023/10/01 05:33:27;;;;;;;28.10;12.10;;;;;;;;;;4918082;29;20462;-67
2023/10/01 05:38:57;;;;;;;26.63;12.03;;;;;;;;;;4916381;29;20394;-69
2023/10/01 05:41:30;;;;;;;29.60;10.83;;;;;;;;;;4916818;29;20415;-67
2023/10/01 05:44:01;;;;;;;32.10;10.33;;;;;;;;;;4916958;29;20606;-68
2023/10/01 05:46:27;;;;;;;25.03;11.67;;;;;;;;;;4916853;29;20423;-69
2023/10/01 05:48:55;;;;;;;27.80;11.60;;;;;;;;;;4916575;29;20934;-70
2023/10/01 05:51:30;;;;;;;26.03;11.80;;;;;;;;;;4915857;29;20422;-68
2023/10/01 05:53:56;;;;;;;31.13;11.60;;;;;;;;;;4916786;29;20493;-68
2023/10/01 05:56:22;;;;;;;28.80;11.40;;;;;;;;;;4915344;29;20422;-70
2023/10/01 05:58:48;;;;;;;26.90;11.50;;;;;;;;;;4916817;29;20453;-68
2023/10/01 06:01:14;;;;;;;28.50;12.40;;;;;;;;;;4926770;29;20457;-68
2023/10/01 06:03:44;;;;;;;24.87;10.70;;;;;;;;;;4937681;29;20409;-68
2023/10/01 06:06:13;;;;;;;21.80;10.37;;;;;;;;;;4944215;29;20440;-67
2023/10/01 06:08:46;;;;;;;21.03;11.27;;;;;;;;;;4945691;29;20402;-67
2023/10/01 06:11:15;;;;;;;21.53;9.77;;;;;;;;;;4940665;29;20583;-67
2023/10/01 06:13:54;;;;;;;25.90;11.43;;;;;;;;;;4943841;29;20473;-69
2023/10/01 06:16:25;;;;;;;21.50;10.40;;;;;;;;;;4944381;29;20480;-69
2023/10/01 06:18:52;;;;;;;26.33;10.33;;;;;;;;;;4943948;29;20851;-70
2023/10/01 06:21:18;;;;;;;21.47;10.90;;;;;;;;;;4943734;29;20518;-68
2023/10/01 06:23:50;;;;;;;26.57;10.67;;;;;;;;;;4936185;29;20506;-69
2023/10/01 06:26:22;;;;;;;21.00;10.17;;;;;;;;;;4935528;29;20437;-69
2023/10/01 06:28:48;;;;;;;23.63;11.27;;;;;;;;;;4943426;29;20429;-69
2023/10/01 06:31:16;;;;;;;21.53;10.10;;;;;;;;;;4935639;29;20429;-68
2023/10/01 06:33:42;;;;;;;24.23;10.83;;;;;;;;;;4938867;29;20473;-67
2023/10/01 06:36:19;;;;;;;23.30;10.27;;;;;;;;;;4935273;29;20445;-68
2023/10/01 06:38:47;;;;;;;19.27;9.97;;;;;;;;;;4935560;29;20402;-68
2023/10/01 06:41:13;;;;;;;26.23;9.77;;;;;;;;;;4936794;29;20441;-69
2023/10/01 06:43:49;;;;;;;21.03;10.10;;;;;;;;;;4937080;29;20984;-69
2023/10/01 06:46:22;;;;;;;28.13;10.83;;;;;;;;;;4936337;29;20515;-68
2023/10/01 06:48:50;;;;;;;22.97;11.00;;;;;;;;;;4935454;29;20441;-67
2023/10/01 06:51:16;;;;;;;21.87;10.93;;;;;;;;;;4935493;29;20409;-68
2023/10/01 06:53:48;;;;;;;27.97;11.10;;;;;;;;;;4938382;29;20464;-70
2023/10/01 06:56:17;;;;;;;25.30;10.70;;;;;;;;;;4940651;29;20456;-68
2023/10/01 07:01:34;;;;;;;20.97;9.73;;;;;;;;;;4935353;29;20785;-69
2023/10/01 07:04:02;;;;;;;24.23;10.37;;;;;;;;;;4934447;29;20414;-70
2023/10/01 07:06:28;;;;;;;23.53;11.13;;;;;;;;;;4925899;29;20406;-69
2023/10/01 07:08:54;;;;;;;25.33;10.40;;;;;;;;;;4921975;29;20406;-69
2023/10/01 07:11:21;;;;;;;18.00;9.17;;;;;;;;;;4923242;29;20448;-69
2023/10/01 07:13:52;;;;;;;17.73;10.07;;;;;;;;;;4932075;29;20476;-68
2023/10/01 07:16:18;;;;;;;21.20;9.07;;;;;;;;;;4940268;29;20485;-67
2023/10/01 07:18:44;;;;;;;20.37;8.60;;;;;;;;;;4941727;29;20783;-69
2023/10/01 07:21:11;;;;;;;20.97;10.97;;;;;;;;;;4940091;29;20410;-68
2023/10/01 07:23:38;;;;;;;22.03;10.30;;;;;;;;;;4938493;29;20513;-69
2023/10/01 07:26:06;;;;;;;29.30;10.97;;;;;;;;;;4940100;29;20521;-69
2023/10/01 07:28:31;;;;;;;26.97;10.40;;;;;;;;;;4940227;29;20432;-68
2023/10/01 07:31:01;;;;;;;19.37;9.40;;;;;;;;;;4939744;29;20422;-69
2023/10/01 07:33:28;;;;;;;22.33;9.97;;;;;;;;;;4939392;29;20964;-68
2023/10/01 07:36:01;;;;;;;25.57;10.10;;;;;;;;;;4939167;29;20440;-69
2023/10/01 07:38:46;;;;;;;23.20;11.57;;;;;;;;;;4938977;29;20881;-69
2023/10/01 07:41:16;;;;;;;19.17;9.23;;;;;;;;;;4938828;29;20508;-66
2023/10/01 07:43:45;;;;;;;24.57;10.80;;;;;;;;;;4937889;29;20420;-66
2023/10/01 07:46:11;;;;;;;22.20;10.40;;;;;;;;;;4938403;29;20444;-66
2023/10/01 07:48:38;;;;;;;19.90;9.80;;;;;;;;;;4938768;29;20417;-74
2023/10/01 07:51:04;;;;;;;20.00;9.90;;;;;;;;;;4938693;29;20767;-72
2023/10/01 07:53:34;;;;;;;19.27;10.10;;;;;;;;;;4939438;29;20475;-72
2023/10/01 07:56:07;;;;;;;24.20;9.80;;;;;;;;;;4938881;29;20436;-72
2023/10/01 07:58:45;;;;;;;22.90;10.70;;;;;;;;;;4940610;29;20406;-73
2023/10/01 08:03:57;;;;;;;17.90;9.83;;;;;;;;;;4919809;29;20765;-72
2023/10/01 08:06:30;;;;;;;20.00;9.77;;;;;;;;;;4920157;29;20429;-72
2023/10/01 08:09:08;;;;;;;23.03;10.63;;;;;;;;;;4930049;29;20440;-75
2023/10/01 08:14:20;;;;;;;19.80;10.27;;;;;;;;;;4940148;29;21164;-73
2023/10/01 08:16:50;;;;;;;21.47;10.00;;;;;;;;;;4924362;29;20441;-74
2023/10/01 08:19:23;;;;;;;17.00;9.73;;;;;;;;;;4927433;29;20417;-73
2023/10/01 08:21:50;;;;;;;23.43;10.17;;;;;;;;;;4934006;29;20418;-74
2023/10/01 08:24:18;;;;;;;24.83;10.23;;;;;;;;;;4919022;29;20427;-74
2023/10/01 08:26:49;;;;;;;19.40;9.80;;;;;;;;;;4918760;29;20417;-73
2023/10/01 08:29:16;;;;;;;23.77;10.10;;;;;;;;;;4919152;29;20474;-73
2023/10/01 08:34:24;;;;;;;21.33;9.20;;;;;;;;;;4919608;29;20474;-74
2023/10/01 08:36:55;;;;;;;20.60;9.73;;;;;;;;;;4924938;29;20463;-74
2023/10/01 08:39:33;;;;;;;20.20;10.30;;;;;;;;;;4933531;29;20549;-73
2023/10/01 08:42:08;;;;;;;19.60;9.90;;;;;;;;;;4926909;29;20418;-73
2023/10/01 08:44:44;;;;;;;21.77;9.93;;;;;;;;;;4927642;29;20444;-74
2023/10/01 08:47:21;;;;;;;20.97;9.07;;;;;;;;;;4919059;29;20571;-72
2023/10/01 08:49:50;;;;;;;21.13;9.80;;;;;;;;;;4923907;29;20421;-72
2023/10/01 08:52:19;;;;;;;19.63;9.73;;;;;;;;;;4921433;29;20419;-72
2023/10/01 08:54:45;;;;;;;18.00;9.53;;;;;;;;;;4928915;29;20552;-74
2023/10/01 08:57:18;;;;;;;21.93;8.90;;;;;;;;;;4929325;29;20466;-73
2023/10/01 08:59:45;;;;;;;20.10;9.77;;;;;;;;;;4931910;29;20501;-73
2023/10/01 09:02:15;;;;;;;20.53;9.80;;;;;;;;;;4934142;29;20778;-72
2023/10/01 09:04:44;;;;;;;21.50;10.33;;;;;;;;;;4932985;29;20583;-72
2023/10/01 09:07:19;;;;;;;19.53;9.40;;;;;;;;;;4917552;29;20791;-72
2023/10/01 09:10:05;;;;;;;21.90;9.67;;;;;;;;;;4918089;29;20414;-72
2023/10/01 09:12:34;;;;;;;19.53;9.50;;;;;;;;;;4921275;29;20450;-72
2023/10/01 09:15:04;;;;;;;17.93;9.07;;;;;;;;;;4917759;29;20517;-71
2023/10/01 09:17:40;;;;;;;21.90;8.80;;;;;;;;;;4918314;29;20427;-71
2023/10/01 09:20:08;;;;;;;21.33;9.20;;;;;;;;;;4921200;29;20402;-73
2023/10/01 09:25:19;;;;;;;16.27;9.20;;;;;;;;;;4917910;29;20446;-73
2023/10/01 09:27:59;;;;;;;18.33;8.50;;;;;;;;;;4918701;29;20402;-73
2023/10/01 09:30:26;;;;;;;17.87;8.73;;;;;;;;;;4919009;29;20419;-72
2023/10/01 09:32:52;;;;;;;17.80;9.13;;;;;;;;;;4923554;29;20477;-73
2023/10/01 09:35:38;;;;;;;19.03;8.73;;;;;;;;;;4915533;29;20479;-72
2023/10/01 09:38:10;;;;;;;20.57;9.40;;;;;;;;;;4917352;29;20763;-72
2023/10/01 09:40:41;;;;;;;21.13;8.87;;;;;;;;;;4927828;29;20409;-72
2023/10/01 09:43:18;;;;;;;16.00;8.40;;;;;;;;;;4934355;29;20431;-72
2023/10/01 09:45:46;;;;;;;17.33;8.47;;;;;;;;;;4923583;29;20497;-73
2023/10/01 09:48:29;;;;;;;22.70;9.00;;;;;;;;;;4943899;29;20446;-73
2023/10/01 09:50:57;;;;;;;15.37;7.47;;;;;;;;;;4927907;28;20425;-71
2023/10/01 09:53:25;;;;;;;17.77;8.13;;;;;;;;;;4916638;29;21142;-71
2023/10/01 09:55:55;;;;;;;18.90;9.60;;;;;;;;;;4916009;29;20517;-65
2023/10/01 09:58:25;;;;;;;15.57;8.67;;;;;;;;;;4916351;29;20812;-65
2023/10/01 10:00:52;;;;;;;20.00;9.10;;;;;;;;;;4920403;29;20437;-66
2023/10/01 10:03:18;;;;;;;17.60;8.87;;;;;;;;;;4916282;29;20423;-66
2023/10/01 10:05:46;;;;;;;18.07;8.20;;;;;;;;;;4935617;29;20438;-64
2023/10/01 10:08:20;;;;;;;16.43;7.70;;;;;;;;;;4935241;29;20425;-65
2023/10/01 10:10:52;;;;;;;16.33;7.73;;;;;;;;;;4934655;29;20426;-64
2023/10/01 10:13:38;;;;;;;17.90;9.17;;;;;;;;;;4935370;29;20984;-65
2023/10/01 10:19:05;;;;;;;21.43;8.53;;;;;;;;;;4935478;29;20513;-67
2023/10/01 10:21:49;;;;;;;16.37;7.90;;;;;;;;;;4937153;29;20418;-64
2023/10/01 10:24:28;;;;;;;19.03;8.90;;;;;;;;;;4935220;29;20476;-65
2023/10/01 10:26:57;;;;;;;17.37;7.43;;;;;;;;;;4934805;29;20501;-66
2023/10/01 10:29:23;;;;;;;17.00;7.97;;;;;;;;;;4934896;29;20501;-64
2023/10/01 10:32:10;;;;;;;17.70;7.53;;;;;;;;;;4934956;29;20453;-64
2023/10/01 10:34:47;;;;;;;20.70;7.70;;;;;;;;;;4916067;29;20856;-64
2023/10/01 10:37:33;;;;;;;18.67;8.47;;;;;;;;;;4942681;29;20496;-66
2023/10/01 10:40:04;;;;;;;16.37;8.43;;;;;;;;;;4928968;29;20406;-65
2023/10/01 10:42:31;;;;;;;19.70;8.60;;;;;;;;;;4933551;29;20779;-66
2023/10/01 10:45:21;;;;;;;22.87;7.80;;;;;;;;;;4929026;29;20437;-65
2023/10/01 10:47:58;;;;;;;21.70;8.37;;;;;;;;;;4923931;29;20418;-66
2023/10/01 10:50:51;;;;;;;18.13;7.53;;;;;;;;;;4917933;29;20497;-65
2023/10/01 10:53:20;;;;;;;21.50;9.13;;;;;;;;;;4935546;29;20495;-65
2023/10/01 10:56:07;;;;;;;16.27;8.23;;;;;;;;;;4936504;29;20992;-65
2023/10/01 10:58:37;;;;;;;25.13;8.87;;;;;;;;;;4933602;29;20545;-64
2023/10/01 11:01:15;;;;;;;14.03;7.83;;;;;;;;;;4916866;29;20423;-66
2023/10/01 11:03:57;;;;;;;16.93;9.10;;;;;;;;;;4923920;29;20767;-66
2023/10/01 11:06:23;;;;;;;21.63;8.73;;;;;;;;;;4927010;29;20433;-68
2023/10/01 11:08:50;;;;;;;20.47;7.60;;;;;;;;;;4914976;29;20962;-65
2023/10/01 11:11:29;;;;;;;19.43;8.93;;;;;;;;;;4934138;29;20433;-65
2023/10/01 11:14:02;;;;;;;18.50;9.17;;;;;;;;;;4929415;29;20923;-65
2023/10/01 11:16:36;;;;;;;19.60;7.87;;;;;;;;;;4967949;23;20856;-72
2023/10/01 11:19:12;;;;;;;18.97;8.77;;;;;;;;;;4939706;29;20505;-71
2023/10/01 11:21:55;;;;;;;21.43;9.10;;;;;;;;;;4939205;29;20460;-71
2023/10/01 11:24:24;;;;;;;24.33;9.87;;;;;;;;;;4937685;29;21189;-72
2023/10/01 11:27:24;;;;;;;26.97;8.77;;;;;;;;;;4934102;29;20939;-72
2023/10/01 11:29:57;;;;;;;18.17;8.97;;;;;;;;;;4934535;29;20492;-72
2023/10/01 11:32:57;;;;;;;20.57;9.67;;;;;;;;;;4934073;29;20920;-72
2023/10/01 11:35:31;;;;;;;17.50;8.97;;;;;;;;;;4927623;29;21040;-72
2023/10/01 11:37:57;;;;;;;22.20;9.57;;;;;;;;;;4933277;29;20429;-72
2023/10/01 11:41:06;;;;;;;30.47;10.63;;;;;;;;;;4936580;29;20516;-72
2023/10/01 11:43:23;;;;;;;20.70;9.47;;;;;;;;;;4938284;29;20909;-72
2023/10/01 11:45:49;;;;;;;21.00;9.10;;;;;;;;;;4937778;29;20555;-72
2023/10/01 11:48:21;;;;;;;21.40;9.97;;;;;;;;;;4938047;29;20482;-71
2023/10/01 11:50:50;;;;;;;21.93;9.20;;;;;;;;;;4937920;29;20426;-71
2023/10/01 11:53:16;;;;;;;16.80;8.37;;;;;;;;;;4927401;29;20466;-73
2023/10/01 11:55:42;;;;;;;21.77;8.97;;;;;;;;;;4926635;29;20434;-73
2023/10/01 11:58:16;;;;;;;19.90;8.80;;;;;;;;;;4918338;29;20453;-73
2023/10/01 12:00:59;;;;;;;19.73;9.57;;;;;;;;;;4918232;29;20450;-73
2023/10/01 12:03:25;;;;;;;20.77;9.40;;;;;;;;;;4918423;29;20418;-73
2023/10/01 12:05:56;;;;;;;23.50;9.33;;;;;;;;;;4916552;29;20458;-73
2023/10/01 12:08:34;;;;;;;20.20;9.23;;;;;;;;;;4918269;29;20910;-73
2023/10/01 12:11:26;;;;;;;19.20;9.73;;;;;;;;;;4918181;29;20426;-73
2023/10/01 12:14:04;;;;;;;18.63;9.67;;;;;;;;;;4918055;29;20577;-73
2023/10/01 12:16:30;;;;;;;19.30;9.07;;;;;;;;;;4917598;29;20472;-73
2023/10/01 12:19:21;;;;;;;19.90;9.90;;;;;;;;;;4918167;29;20414;-73
2023/10/01 12:21:42;;;;;;;20.33;9.03;;;;;;;;;;4931618;29;20440;-71
2023/10/01 12:24:12;;;;;;;25.73;9.50;;;;;;;;;;4922219;29;20790;-72
2023/10/01 12:26:39;;;;;;;19.67;9.17;;;;;;;;;;4919543;29;20806;-73
2023/10/01 12:29:12;;;;;;;19.00;10.20;;;;;;;;;;4916423;29;20558;-71
2023/10/01 12:31:40;;;;;;;18.13;8.57;;;;;;;;;;4917294;29;20421;-74
2023/10/01 12:34:06;;;;;;;20.87;9.77;;;;;;;;;;4917635;29;20469;-71
2023/10/01 12:36:42;;;;;;;20.83;9.57;;;;;;;;;;4917485;29;20440;-72
2023/10/01 12:44:25;;;;;;;21.13;9.27;;;;;;;;;;4917272;29;20445;-71
2023/10/01 12:46:51;;;;;;;22.77;9.77;;;;;;;;;;4915669;29;20867;-71
2023/10/01 12:49:18;;;;;;;20.70;9.67;;;;;;;;;;4926741;29;20436;-71
2023/10/01 12:51:48;;;;;;;22.23;9.70;;;;;;;;;;4936448;29;20417;-71
2023/10/01 12:54:22;;;;;;;15.00;8.03;;;;;;;;;;4936478;29;20461;-71
2023/10/01 12:57:02;;;;;;;22.40;8.77;;;;;;;;;;4936298;29;20492;-71
2023/10/01 12:59:38;;;;;;;20.37;8.40;;;;;;;;;;4936585;29;20845;-71
2023/10/01 13:02:04;;;;;;;18.80;9.03;;;;;;;;;;4936286;29;20500;-71
2023/10/01 13:04:32;;;;;;;21.37;9.07;;;;;;;;;;4935792;29;20417;-71
2023/10/01 13:07:07;;;;;;;21.10;9.43;;;;;;;;;;4940433;29;20420;-70
2023/10/01 13:12:16;;;;;;;17.70;7.97;;;;;;;;;;4941752;29;20476;-71
2023/10/01 13:15:14;;;;;;;21.17;8.70;;;;;;;;;;4942795;29;20472;-70
2023/10/01 13:17:38;;;;;;;17.67;8.43;;;;;;;;;;4938463;29;20497;-71
2023/10/01 13:20:19;;;;;;;19.70;7.27;;;;;;;;;;4936261;29;20418;-71
2023/10/01 13:22:48;;;;;;;25.93;10.30;;;;;;;;;;4935620;29;20445;-71
2023/10/01 13:25:18;;;;;;;18.20;8.20;;;;;;;;;;4935855;29;20862;-70
2023/10/01 13:27:46;;;;;;;18.33;8.80;;;;;;;;;;4934510;29;20433;-71
2023/10/01 13:30:20;;;;;;;19.53;8.13;;;;;;;;;;4935466;29;20410;-71
2023/10/01 13:35:35;;;;;;;19.83;8.80;;;;;;;;;;4923679;29;20449;-71
2023/10/01 14:08:43;;;;;;;17.77;8.20;;;;;;;;;;4935132;29;20416;-71
2023/10/01 14:08:44;;;;;;;24.00;9.03;;;;;;;;;;4942556;29;20474;-71
2023/10/01 14:11:11;;;;;;;22.67;9.00;;;;;;;;;;4935706;29;20413;-71
2023/10/01 14:13:41;;;;;;;17.00;8.17;;;;;;;;;;4935566;29;20460;-73
2023/10/01 14:16:23;;;;;;;18.23;7.90;;;;;;;;;;4934866;29;20461;-71
2023/10/01 14:18:57;;;;;;;17.67;8.83;;;;;;;;;;4935309;29;20497;-70
2023/10/01 14:21:30;;;;;;;22.97;9.20;;;;;;;;;;4935232;29;20440;-70
2023/10/01 14:26:43;;;;;;;22.70;8.70;;;;;;;;;;4934782;29;20928;-70
2023/10/01 14:29:10;;;;;;;20.27;9.23;;;;;;;;;;4934396;29;20433;-70
2023/10/01 14:31:48;;;;;;;20.83;9.07;;;;;;;;;;4935094;29;20410;-71
2023/10/01 14:34:17;;;;;;;18.93;7.93;;;;;;;;;;4933583;29;20989;-72
2023/10/01 14:36:43;;;;;;;21.00;9.60;;;;;;;;;;4934542;29;20437;-70
2023/10/01 14:39:09;;;;;;;18.20;8.30;;;;;;;;;;4935312;29;20489;-71
2023/10/01 14:41:42;;;;;;;17.80;8.30;;;;;;;;;;4934489;29;20406;-72
2023/10/01 14:44:10;;;;;;;21.03;7.67;;;;;;;;;;4930701;29;20446;-71
2023/10/01 14:46:47;;;;;;;18.77;8.70;;;;;;;;;;4916129;29;20450;-70
2023/10/01 14:49:13;;;;;;;20.47;8.00;;;;;;;;;;4915402;29;20457;-71
2023/10/01 14:51:48;;;;;;;16.77;7.87;;;;;;;;;;4915789;29;20466;-72
2023/10/01 14:54:17;;;;;;;24.80;8.70;;;;;;;;;;4938885;29;20472;-72
2023/10/01 14:56:44;;;;;;;18.47;10.13;;;;;;;;;;4933914;29;20540;-72
2023/10/01 14:59:13;;;;;;;19.90;8.53;;;;;;;;;;4934351;29;20416;-72
2023/10/01 15:01:41;;;;;;;16.63;8.17;;;;;;;;;;4932422;29;20482;-72
2023/10/01 15:04:17;;;;;;;19.80;8.83;;;;;;;;;;4929169;29;20434;-72
2023/10/01 15:06:44;;;;;;;17.17;6.87;;;;;;;;;;4915089;29;20425;-72
2023/10/01 15:09:12;;;;;;;17.83;8.30;;;;;;;;;;4915483;29;20546;-71
2023/10/01 15:11:38;;;;;;;20.47;8.07;;;;;;;;;;4917814;29;20427;-72
2023/10/01 15:14:11;;;;;;;18.17;8.20;;;;;;;;;;4932990;29;20473;-72
2023/10/01 15:16:38;;;;;;;15.17;8.03;;;;;;;;;;4937989;29;20457;-72
2023/10/01 15:19:04;;;;;;;19.97;7.97;;;;;;;;;;4938471;29;20516;-71
2023/10/01 15:21:31;;;;;;;24.67;9.00;;;;;;;;;;4937913;29;20426;-72
2023/10/01 15:24:00;;;;;;;18.13;7.73;;;;;;;;;;4938013;29;20520;-72
2023/10/01 15:26:30;;;;;;;18.03;7.27;;;;;;;;;;4932567;29;20512;-72
2023/10/01 15:28:56;;;;;;;19.83;8.70;;;;;;;;;;4937409;29;20424;-72
2023/10/01 15:31:33;;;;;;;19.13;8.67;;;;;;;;;;4937350;29;20437;-72
2023/10/01 15:34:03;;;;;;;17.20;7.40;;;;;;;;;;4924978;29;20470;-72
2023/10/01 15:36:40;;;;;;;17.17;7.80;;;;;;;;;;4918064;29;20533;-72
2023/10/01 15:44:49;;;;;;;21.43;8.80;;;;;;;;;;4937196;29;20516;-71
2023/10/01 15:50:04;;;;;;;16.40;8.27;;;;;;;;;;4937422;29;20428;-70
2023/10/01 15:52:37;;;;;;;15.87;7.27;;;;;;;;;;4936837;29;20444;-71
2023/10/01 15:55:04;;;;;;;16.40;7.40;;;;;;;;;;4937164;29;20434;-71
2023/10/01 15:57:32;;;;;;;17.37;7.30;;;;;;;;;;4937119;29;20472;-71
2023/10/01 15:59:58;;;;;;;18.03;8.60;;;;;;;;;;4938825;29;20446;-72
2023/10/01 16:02:24;;;;;;;19.47;8.17;;;;;;;;;;4938754;29;20451;-71
2023/10/01 16:04:59;;;;;;;16.60;7.53;;;;;;;;;;4938565;29;20441;-71
2023/10/01 16:07:25;;;;;;;16.77;8.10;;;;;;;;;;4937791;29;20409;-71
2023/10/01 16:09:51;;;;;;;16.40;7.73;;;;;;;;;;4935248;29;20524;-71
2023/10/01 16:12:17;;;;;;;15.40;6.97;;;;;;;;;;4928369;29;20913;-71
2023/10/01 16:14:46;;;;;;;17.27;7.80;;;;;;;;;;4936689;29;20805;-71
2023/10/01 16:17:18;;;;;;;20.50;8.43;;;;;;;;;;4929241;29;20413;-71
2023/10/01 16:19:51;;;;;;;17.43;8.03;;;;;;;;;;4936853;29;20460;-72
2023/10/01 16:22:22;;;;;;;20.83;8.17;;;;;;;;;;4936065;29;20547;-71
2023/10/01 16:24:49;;;;;;;19.30;7.80;;;;;;;;;;4918525;29;20438;-72
2023/10/01 16:27:25;;;;;;;20.63;8.70;;;;;;;;;;4917200;29;20414;-71
2023/10/01 16:30:29;;;;;;;19.40;7.80;;;;;;;;;;4917351;29;20961;-72
2023/10/01 16:32:56;;;;;;;16.87;7.87;;;;;;;;;;4917812;29;20434;-71
2023/10/01 16:35:31;;;;;;;16.63;7.20;;;;;;;;;;4916915;29;20502;-71
2023/10/01 16:38:03;;;;;;;18.40;7.70;;;;;;;;;;4917645;29;20425;-71
2023/10/01 16:40:30;;;;;;;21.40;8.63;;;;;;;;;;4916133;29;20466;-71
2023/10/01 16:42:59;;;;;;;18.23;8.53;;;;;;;;;;4931586;29;20502;-71
2023/10/01 16:45:26;;;;;;;20.83;8.70;;;;;;;;;;4936000;29;20815;-72
2023/10/01 16:47:55;;;;;;;20.10;8.70;;;;;;;;;;4935833;29;20473;-72
2023/10/01 16:50:56;;;;;;;18.50;8.00;;;;;;;;;;4936415;29;20421;-72
2023/10/01 16:53:30;;;;;;;21.70;9.80;;;;;;;;;;4935815;29;20472;-71
2023/10/01 16:55:57;;;;;;;19.63;9.40;;;;;;;;;;4936082;29;20442;-71
2023/10/01 16:58:32;;;;;;;22.83;9.63;;;;;;;;;;4936383;29;20414;-71
2023/10/01 17:01:01;;;;;;;23.47;9.40;;;;;;;;;;4936322;29;20425;-71
2023/10/01 17:03:35;;;;;;;22.53;11.23;;;;;;;;;;4936310;29;20858;-71
2023/10/01 17:06:07;;;;;;;28.90;11.77;;;;;;;;;;4936084;29;20442;-71
2023/10/01 17:08:34;;;;;;;24.97;11.00;;;;;;;;;;4936062;29;20440;-71
2023/10/01 17:11:00;;;;;;;26.80;10.07;;;;;;;;;;4935586;29;20921;-71
2023/10/01 17:13:27;;;;;;;21.13;10.20;;;;;;;;;;4928706;29;20545;-71
2023/10/01 17:15:53;;;;;;;25.20;10.23;;;;;;;;;;4956442;23;20504;-66
2023/10/01 17:18:19;;;;;;;23.60;10.60;;;;;;;;;;4935356;29;20472;-66
2023/10/01 17:20:50;;;;;;;19.73;8.73;;;;;;;;;;4939431;29;20795;-66
2023/10/01 17:23:16;;;;;;;21.37;9.33;;;;;;;;;;4948738;29;20407;-66
2023/10/01 17:25:58;;;;;;;19.20;10.07;;;;;;;;;;4945057;29;20944;-66
2023/10/01 17:28:43;;;;;;;23.73;10.30;;;;;;;;;;4931633;29;20455;-68
2023/10/01 17:31:17;;;;;;;32.63;13.00;;;;;;;;;;4926964;29;20485;-66
2023/10/01 17:33:43;;;;;;;24.47;9.83;;;;;;;;;;4926492;29;20567;-74
2023/10/01 17:36:12;;;;;;;31.57;14.30;;;;;;;;;;4924134;29;20453;-73
2023/10/01 17:38:38;;;;;;;26.13;11.87;;;;;;;;;;4929832;29;20426;-74
2023/10/01 17:41:18;;;;;;;24.73;10.10;;;;;;;;;;4926500;29;20790;-72
2023/10/01 17:43:54;;;;;;;27.17;9.50;;;;;;;;;;4941314;29;20428;-72
2023/10/01 17:46:20;;;;;;;20.73;9.80;;;;;;;;;;4928628;29;20508;-71
2023/10/01 17:48:46;;;;;;;23.67;10.27;;;;;;;;;;4921987;29;20852;-72
2023/10/01 17:51:13;;;;;;;21.50;9.27;;;;;;;;;;4929129;29;20838;-73
2023/10/01 17:53:39;;;;;;;24.97;11.07;;;;;;;;;;4918541;29;20977;-72
2023/10/01 17:56:19;;;;;;;20.67;8.90;;;;;;;;;;4929085;29;20453;-72
2023/10/01 17:58:45;;;;;;;20.57;9.33;;;;;;;;;;4935740;29;20555;-73
2023/10/01 18:01:13;;;;;;;23.90;9.57;;;;;;;;;;4932269;29;20457;-72
2023/10/01 18:03:49;;;;;;;22.83;9.60;;;;;;;;;;4919037;29;20414;-72
2023/10/01 18:06:20;;;;;;;19.60;9.10;;;;;;;;;;4928097;29;20925;-71
2023/10/01 18:08:51;;;;;;;21.70;9.30;;;;;;;;;;4924387;29;20504;-71
2023/10/01 18:11:18;;;;;;;20.57;8.80;;;;;;;;;;4931893;29;20430;-72
2023/10/01 18:13:45;;;;;;;23.77;10.57;;;;;;;;;;4943878;29;20473;-72
2023/10/01 18:16:25;;;;;;;22.30;9.37;;;;;;;;;;4936722;29;20476;-71
2023/10/01 18:18:51;;;;;;;23.80;9.97;;;;;;;;;;4932601;29;20512;-71
2023/10/01 18:21:17;;;;;;;22.77;10.00;;;;;;;;;;4921854;29;20811;-70
2023/10/01 18:23:43;;;;;;;26.00;10.47;;;;;;;;;;4929198;29;20417;-71
2023/10/01 18:26:11;;;;;;;24.40;10.60;;;;;;;;;;4929100;29;20556;-71
2023/10/01 18:28:37;;;;;;;20.60;9.50;;;;;;;;;;4924538;29;20844;-71
2023/10/01 18:31:04;;;;;;;29.63;12.87;;;;;;;;;;4920109;29;20521;-71
2023/10/01 18:33:35;;;;;;;24.23;10.17;;;;;;;;;;4922579;29;20465;-71
2023/10/01 18:36:03;;;;;;;27.03;11.40;;;;;;;;;;4929603;29;20953;-71
2023/10/01 18:38:30;;;;;;;29.97;11.23;;;;;;;;;;4918345;29;20414;-71
2023/10/01 18:40:57;;;;;;;22.97;10.30;;;;;;;;;;4933420;29;20425;-71
2023/10/01 18:43:23;;;;;;;26.53;11.30;;;;;;;;;;4932109;29;20529;-64
2023/10/01 18:45:59;;;;;;;25.10;12.20;;;;;;;;;;4933352;29;20512;-64
2023/10/01 18:48:26;;;;;;;24.87;10.77;;;;;;;;;;4920678;29;20429;-64
2023/10/01 18:50:56;;;;;;;30.43;11.80;;;;;;;;;;4924162;29;20422;-63
2023/10/01 18:53:22;;;;;;;24.97;10.77;;;;;;;;;;4925965;29;20473;-64
2023/10/01 18:55:48;;;;;;;31.03;11.80;;;;;;;;;;4933517;29;20437;-64
2023/10/01 18:58:17;;;;;;;35.27;12.60;;;;;;;;;;4930771;29;20468;-64
2023/10/01 19:00:46;;;;;;;29.57;11.17;;;;;;;;;;4927343;29;20434;-64
2023/10/01 19:03:12;;;;;;;26.53;12.53;;;;;;;;;;4930867;29;20429;-64
2023/10/01 19:05:42;;;;;;;26.67;11.83;;;;;;;;;;4937723;29;20461;-64
2023/10/01 19:08:08;;;;;;;29.60;12.17;;;;;;;;;;4919657;29;20469;-64
2023/10/01 19:10:37;;;;;;;27.50;10.43;;;;;;;;;;4923665;29;20425;-64
2023/10/01 19:13:04;;;;;;;25.20;10.33;;;;;;;;;;4937518;29;20422;-71
2023/10/01 19:15:31;;;;;;;23.40;12.10;;;;;;;;;;4933999;29;20563;-72
2023/10/01 19:17:58;;;;;;;30.80;12.90;;;;;;;;;;4933384;29;20440;-73
2023/10/01 19:20:25;;;;;;;32.10;12.57;;;;;;;;;;4937435;29;20432;-73
2023/10/01 19:22:57;;;;;;;29.80;13.10;;;;;;;;;;4937484;29;20796;-72
2023/10/01 19:25:23;;;;;;;25.33;10.60;;;;;;;;;;4937342;29;20585;-72
2023/10/01 19:27:50;;;;;;;26.53;11.30;;;;;;;;;;4937010;29;20429;-73
2023/10/01 19:30:19;;;;;;;29.30;11.90;;;;;;;;;;4937232;29;20437;-72
2023/10/01 19:32:48;;;;;;;25.50;11.10;;;;;;;;;;4937224;29;20426;-72
2023/10/01 19:35:20;;;;;;;30.33;12.47;;;;;;;;;;4937536;29;20504;-72
2023/10/01 19:37:47;;;;;;;28.43;11.63;;;;;;;;;;4937375;29;20459;-72
2023/10/01 19:40:19;;;;;;;26.67;10.80;;;;;;;;;;4937478;29;20437;-72
2023/10/01 19:42:50;;;;;;;23.90;10.70;;;;;;;;;;4937257;29;20937;-72
2023/10/01 19:45:32;;;;;;;27.87;11.93;;;;;;;;;;4937106;29;20449;-72
2023/10/01 19:47:59;;;;;;;30.67;11.20;;;;;;;;;;4932176;29;20441;-72
2023/10/01 19:50:41;;;;;;;20.53;9.57;;;;;;;;;;4937806;29;20437;-72
2023/10/01 19:53:14;;;;;;;23.93;10.57;;;;;;;;;;4941424;29;20799;-71
2023/10/01 19:55:54;;;;;;;30.03;12.47;;;;;;;;;;4930233;29;20461;-73
2023/10/01 19:58:20;;;;;;;19.63;9.47;;;;;;;;;;4935742;29;20433;-72
2023/10/01 20:00:49;;;;;;;25.30;11.10;;;;;;;;;;4936268;29;20429;-72
2023/10/01 20:03:16;;;;;;;27.77;11.83;;;;;;;;;;4918369;29;20419;-72
2023/10/01 20:05:42;;;;;;;25.13;10.60;;;;;;;;;;4920531;29;20482;-72
2023/10/01 20:08:08;;;;;;;26.37;10.50;;;;;;;;;;4936921;29;20449;-73
2023/10/01 20:10:35;;;;;;;24.13;10.20;;;;;;;;;;4936821;29;21001;-73
2023/10/01 20:13:02;;;;;;;25.10;10.20;;;;;;;;;;4936838;29;20430;-73
2023/10/01 20:15:28;;;;;;;24.93;10.60;;;;;;;;;;4936492;29;20472;-72
2023/10/01 20:18:17;;;;;;;22.70;8.93;;;;;;;;;;4921462;29;20425;-72
2023/10/01 20:20:48;;;;;;;26.47;11.00;;;;;;;;;;4925254;29;20488;-75
2023/10/01 20:23:14;;;;;;;22.93;9.97;;;;;;;;;;4936019;29;20930;-71
2023/10/01 20:25:41;;;;;;;22.17;10.20;;;;;;;;;;4936106;29;20445;-72
2023/10/01 20:28:07;;;;;;;33.33;11.97;;;;;;;;;;4936739;29;20778;-72
2023/10/01 20:30:35;;;;;;;25.03;11.13;;;;;;;;;;4936683;29;20424;-72
2023/10/01 20:33:05;;;;;;;23.13;11.50;;;;;;;;;;4936399;29;20414;-72
2023/10/01 20:35:40;;;;;;;25.97;11.20;;;;;;;;;;4936547;29;20451;-72
2023/10/01 20:38:22;;;;;;;23.37;11.07;;;;;;;;;;4918585;29;20868;-72
2023/10/01 20:40:50;;;;;;;26.73;11.33;;;;;;;;;;4936761;29;20782;-73
2023/10/01 20:43:22;;;;;;;21.53;10.80;;;;;;;;;;4936581;29;20406;-72
2023/10/01 20:45:48;;;;;;;24.07;10.90;;;;;;;;;;4936173;29;20430;-73
2023/10/01 20:48:34;;;;;;;24.67;11.30;;;;;;;;;;4924909;29;20466;-73
2023/10/01 20:51:04;;;;;;;26.27;11.70;;;;;;;;;;4919225;29;20423;-72
2023/10/01 20:53:36;;;;;;;28.80;11.83;;;;;;;;;;4930691;29;20476;-73
2023/10/01 20:56:05;;;;;;;25.97;10.50;;;;;;;;;;4917318;29;20435;-73